Time;durP1;ratioP1;P1;durP2;ratioP2;P2;SDS_P1;SDS_P2;PMS_P1;PMS_P2;Temp;Humidity;BMP_temperature;BMP_pressure;BME280_temperature;BME280_humidity;BME280_pressure;Samples;Min_cycle;Max_cycle;Signal;HPM_P1;HPM_P2
2022/10/21 00:02:16;;;;;;;74.35;28.88;;;11.10;99.90;;;;;;5121357;27;20051;-93
2022/10/21 00:04:41;;;;;;;77.45;30.58;;;11.10;99.90;;;;;;5106187;27;20050;-94
2022/10/21 00:07:07;;;;;;;69.43;27.88;;;11.10;99.90;;;;;;5121810;27;20122;-95
2022/10/21 00:09:33;;;;;;;71.10;29.23;;;11.10;99.90;;;;;;5140224;27;20078;-94
2022/10/21 00:11:58;;;;;;;65.20;29.90;;;11.00;99.90;;;;;;5122302;27;20358;-96
2022/10/21 00:14:24;;;;;;;65.65;28.67;;;11.10;99.90;;;;;;5140085;27;20045;-95
2022/10/21 00:16:50;;;;;;;68.28;29.83;;;11.10;99.90;;;;;;5105092;27;20035;-94
2022/10/21 00:19:15;;;;;;;68.28;29.52;;;11.10;99.90;;;;;;5138233;27;20062;-95
2022/10/21 00:21:41;;;;;;;70.65;28.23;;;11.00;99.90;;;;;;5138683;27;20061;-95
2022/10/21 00:24:07;;;;;;;67.22;30.23;;;11.00;99.90;;;;;;5138134;27;20121;-91
2022/10/21 00:26:33;;;;;;;64.18;28.35;;;11.00;99.90;;;;;;5121347;27;20041;-95
2022/10/21 00:28:58;;;;;;;64.55;29.60;;;11.10;99.90;;;;;;5123454;27;20042;-96
2022/10/21 00:31:24;;;;;;;83.05;30.88;;;11.10;99.90;;;;;;5123086;27;20038;-95
2022/10/21 00:33:50;;;;;;;67.25;30.40;;;11.10;99.90;;;;;;5123443;27;20047;-96
2022/10/21 00:36:16;;;;;;;68.85;29.45;;;11.10;99.90;;;;;;5124759;27;20034;-96
2022/10/21 00:38:43;;;;;;;70.90;31.15;;;11.20;99.90;;;;;;5129822;27;20455;-96
2022/10/21 00:41:08;;;;;;;75.72;30.02;;;11.10;99.90;;;;;;5125115;27;20054;-93
2022/10/21 00:44:04;;;;;;;76.13;30.13;;;11.30;99.90;;;;;;5122429;27;20053;-92
2022/10/21 00:46:40;;;;;;;67.32;28.73;;;11.10;99.90;;;;;;5128975;27;20046;-90
2022/10/21 00:49:13;;;;;;;61.47;28.70;;;11.10;99.90;;;;;;5143551;27;20023;-88
2022/10/21 00:51:38;;;;;;;61.55;27.58;;;11.10;99.90;;;;;;5139861;27;20051;-94
2022/10/21 00:54:04;;;;;;;61.30;28.33;;;11.10;99.90;;;;;;5089719;27;20481;-95
2022/10/21 00:56:30;;;;;;;64.05;27.48;;;11.10;99.90;;;;;;5090245;27;20066;-95
2022/10/21 00:58:57;;;;;;;62.65;29.00;;;11.10;99.90;;;;;;5123627;27;20038;-96
2022/10/21 01:01:22;;;;;;;59.90;28.88;;;11.10;99.90;;;;;;5123577;27;20034;-96
2022/10/21 01:03:49;;;;;;;69.78;30.05;;;11.10;99.90;;;;;;5139636;27;20198;-93
2022/10/21 01:06:14;;;;;;;67.72;29.73;;;11.20;99.90;;;;;;5129043;27;20382;-92
2022/10/21 01:08:40;;;;;;;71.53;28.65;;;11.20;99.90;;;;;;5112812;27;20061;-96
2022/10/21 01:11:09;;;;;;;66.80;28.58;;;11.10;99.90;;;;;;5122619;27;20509;-95
2022/10/21 01:13:49;;;;;;;63.15;29.25;;;11.10;99.90;;;;;;5121729;27;20047;-94
2022/10/21 01:16:56;;;;;;;65.10;28.52;;;11.00;99.90;;;;;;5120429;27;20046;-95
2022/10/21 01:19:52;;;;;;;73.07;27.73;;;11.00;99.90;;;;;;5138203;27;20449;-96
2022/10/21 01:22:49;;;;;;;61.08;25.92;;;11.00;99.90;;;;;;5104741;27;20520;-94
2022/10/21 01:25:39;;;;;;;61.67;28.10;;;11.00;99.90;;;;;;5119582;27;20056;-94
2022/10/21 01:28:16;;;;;;;55.00;25.42;;;11.00;99.90;;;;;;5137004;27;20043;-94
2022/10/21 01:31:02;;;;;;;61.40;27.48;;;11.00;99.90;;;;;;5137042;27;20034;-96
2022/10/21 01:33:55;;;;;;;64.97;27.25;;;11.00;99.90;;;;;;5105697;27;20042;-96
2022/10/21 01:36:54;;;;;;;66.18;26.95;;;11.00;99.90;;;;;;5119327;27;20050;-96
2022/10/21 01:39:39;;;;;;;67.43;27.42;;;11.00;99.90;;;;;;5106031;27;20042;-93
2022/10/21 01:42:24;;;;;;;69.90;27.00;;;10.90;99.90;;;;;;5109746;27;20047;-96
2022/10/21 01:45:11;;;;;;;65.38;26.88;;;10.90;99.90;;;;;;5120122;27;20035;-95
2022/10/21 01:47:54;;;;;;;67.93;27.90;;;10.90;99.90;;;;;;5104617;27;20043;-96
2022/10/21 01:50:25;;;;;;;64.53;26.83;;;10.90;99.90;;;;;;5121767;27;20050;-95
2022/10/21 01:52:53;;;;;;;66.30;27.38;;;10.90;99.90;;;;;;5103342;27;20046;-93
2022/10/21 01:55:20;;;;;;;67.82;28.10;;;10.90;99.90;;;;;;5102837;27;20050;-93
2022/10/21 01:57:49;;;;;;;65.75;27.05;;;10.90;99.90;;;;;;5102920;27;20038;-94
2022/10/21 02:00:15;;;;;;;74.22;28.17;;;10.80;99.90;;;;;;5103112;27;20163;-93
2022/10/21 02:02:42;;;;;;;68.68;26.33;;;10.90;99.90;;;;;;5115303;27;20027;-88
2022/10/21 02:05:12;;;;;;;70.63;27.58;;;10.80;99.90;;;;;;5126019;27;20030;-88
2022/10/21 02:07:38;;;;;;;82.85;30.02;;;10.80;99.90;;;;;;5126002;27;20050;-88
2022/10/21 02:10:04;;;;;;;68.93;28.00;;;10.90;99.90;;;;;;5100564;27;20134;-96
2022/10/21 02:12:29;;;;;;;70.28;29.27;;;10.90;99.90;;;;;;5102707;27;20053;-94
2022/10/21 02:14:55;;;;;;;63.38;27.40;;;10.80;99.90;;;;;;5102849;27;20043;-92
2022/10/21 02:17:21;;;;;;;68.05;28.17;;;10.90;99.90;;;;;;5085018;27;20042;-90
2022/10/21 02:19:46;;;;;;;66.95;27.25;;;10.90;99.90;;;;;;5102897;27;20071;-95
2022/10/21 02:22:13;;;;;;;71.68;29.23;;;11.00;99.90;;;;;;5106417;27;20396;-95
2022/10/21 02:24:55;;;;;;;68.97;26.95;;;11.10;99.90;;;;;;5124310;27;20047;-92
2022/10/21 02:27:21;;;;;;;65.53;27.00;;;11.10;99.90;;;;;;5111418;27;20047;-91
2022/10/21 02:29:47;;;;;;;69.10;28.92;;;11.20;99.90;;;;;;5127715;27;20044;-91
2022/10/21 02:32:31;;;;;;;62.05;27.67;;;11.20;99.90;;;;;;5106540;27;20043;-95
2022/10/21 02:35:12;;;;;;;67.05;27.45;;;11.30;99.90;;;;;;5123129;27;20125;-96
2022/10/21 02:37:40;;;;;;;67.07;26.55;;;11.40;99.90;;;;;;5123081;27;20390;-95
2022/10/21 02:40:31;;;;;;;65.20;28.05;;;11.50;99.90;;;;;;5123593;27;20034;-93
2022/10/21 02:43:02;;;;;;;64.47;28.25;;;11.40;99.90;;;;;;5117896;27;20176;-93
2022/10/21 02:45:28;;;;;;;66.70;28.33;;;11.60;99.90;;;;;;5107259;27;20050;-95
2022/10/21 02:47:54;;;;;;;62.05;28.65;;;11.60;99.90;;;;;;5124323;27;20038;-93
2022/10/21 02:50:19;;;;;;;84.60;29.55;;;11.80;99.90;;;;;;5124005;27;20061;-92
2022/10/21 02:52:45;;;;;;;86.38;31.30;;;11.90;99.90;;;;;;5127268;27;20041;-91
2022/10/21 02:55:11;;;;;;;90.38;32.75;;;12.10;99.90;;;;;;5129691;27;20043;-92
2022/10/21 02:57:37;;;;;;;91.38;31.20;;;12.20;99.90;;;;;;5127678;27;20070;-91
2022/10/21 03:00:04;;;;;;;90.15;30.95;;;12.30;99.90;;;;;;5067634;27;20067;-90
2022/10/21 03:02:29;;;;;;;84.13;31.50;;;12.40;99.90;;;;;;5083832;27;20042;-90
2022/10/21 03:04:55;;;;;;;99.57;31.17;;;12.40;99.90;;;;;;5101182;27;20039;-90
2022/10/21 03:07:21;;;;;;;98.53;31.67;;;12.40;99.90;;;;;;5117727;27;20122;-90
2022/10/21 03:09:46;;;;;;;87.45;29.50;;;12.50;99.90;;;;;;5101072;27;20090;-91
2022/10/21 03:12:12;;;;;;;94.72;29.50;;;12.50;99.90;;;;;;5102067;27;20047;-91
2022/10/21 03:14:37;;;;;;;79.78;28.70;;;12.50;99.90;;;;;;5100869;27;20043;-90
2022/10/21 03:17:03;;;;;;;83.72;28.10;;;12.50;99.90;;;;;;5101651;27;20126;-92
2022/10/21 03:19:29;;;;;;;91.80;30.00;;;12.50;99.90;;;;;;5103366;27;20039;-87
2022/10/21 03:21:54;;;;;;;118.15;30.63;;;12.60;99.90;;;;;;5142479;27;20019;-86
2022/10/21 03:24:20;;;;;;;144.35;31.85;;;12.50;99.90;;;;;;5142331;27;20024;-88
2022/10/21 03:26:46;;;;;;;122.55;30.65;;;12.50;99.90;;;;;;5141881;27;20023;-91
2022/10/21 03:29:11;;;;;;;71.55;28.95;;;12.50;99.90;;;;;;5118849;27;20039;-91
2022/10/21 03:31:37;;;;;;;80.72;28.85;;;12.40;99.90;;;;;;5100518;27;20047;-89
2022/10/21 03:34:03;;;;;;;93.55;29.20;;;12.50;99.90;;;;;;5118655;27;20039;-90
2022/10/21 03:36:28;;;;;;;131.15;30.33;;;12.50;99.90;;;;;;5117782;27;20390;-88
2022/10/21 03:38:54;;;;;;;75.32;27.58;;;12.50;99.90;;;;;;5084689;27;20126;-91
2022/10/21 03:41:19;;;;;;;62.42;27.10;;;12.40;99.90;;;;;;5084241;27;20125;-91
2022/10/21 03:43:45;;;;;;;90.63;28.77;;;12.50;99.90;;;;;;5117274;27;20122;-90
2022/10/21 03:46:11;;;;;;;106.95;28.88;;;12.50;99.90;;;;;;5102679;27;20120;-91
2022/10/21 03:48:36;;;;;;;84.03;27.55;;;12.50;99.90;;;;;;5105527;27;20039;-91
2022/10/21 03:51:02;;;;;;;89.22;28.27;;;12.50;99.90;;;;;;5102265;27;20035;-90
2022/10/21 03:53:28;;;;;;;143.23;30.70;;;12.50;99.90;;;;;;5100824;27;20482;-90
2022/10/21 03:55:59;;;;;;;92.00;28.02;;;12.40;99.90;;;;;;5117987;27;20419;-90
2022/10/21 03:58:25;;;;;;;80.90;27.25;;;12.50;99.90;;;;;;5117833;27;20039;-88
2022/10/21 04:00:51;;;;;;;105.28;29.20;;;12.60;99.90;;;;;;5100815;27;20107;-92
2022/10/21 04:03:17;;;;;;;82.80;25.95;;;12.50;99.90;;;;;;5100657;27;20123;-91
2022/10/21 04:05:42;;;;;;;93.15;27.65;;;12.50;99.90;;;;;;5083219;27;20614;-90
2022/10/21 04:08:08;;;;;;;91.32;28.52;;;12.40;99.90;;;;;;5100916;27;20078;-91
2022/10/21 04:10:34;;;;;;;108.47;30.38;;;12.40;99.90;;;;;;5084854;27;20047;-89
2022/10/21 04:12:59;;;;;;;98.60;29.67;;;12.40;99.90;;;;;;5101539;27;20039;-92
2022/10/21 04:15:25;;;;;;;86.70;28.55;;;12.20;99.90;;;;;;5118095;27;20034;-91
2022/10/21 04:17:51;;;;;;;77.35;27.45;;;12.30;99.90;;;;;;5117718;27;20107;-92
2022/10/21 04:20:16;;;;;;;86.93;28.25;;;12.30;99.90;;;;;;5084207;27;20043;-93
2022/10/21 04:22:42;;;;;;;81.47;28.75;;;12.20;99.90;;;;;;5099979;27;20096;-92
2022/10/21 04:25:08;;;;;;;101.03;30.48;;;12.30;99.90;;;;;;5083802;27;20047;-92
2022/10/21 04:27:33;;;;;;;112.43;29.50;;;12.30;99.90;;;;;;5100068;27;20120;-93
2022/10/21 04:29:59;;;;;;;128.32;30.90;;;12.20;99.90;;;;;;5104054;27;20078;-90
2022/10/21 04:32:24;;;;;;;185.27;33.22;;;12.30;99.90;;;;;;5117042;27;20078;-93
2022/10/21 04:34:50;;;;;;;167.25;32.05;;;12.30;99.90;;;;;;5100464;27;20070;-93
2022/10/21 04:37:16;;;;;;;193.25;32.42;;;12.20;99.90;;;;;;5086973;27;20043;-88
2022/10/21 04:39:41;;;;;;;170.23;32.47;;;12.20;99.90;;;;;;5123242;27;20105;-89
2022/10/21 04:42:07;;;;;;;251.30;32.55;;;12.20;99.90;;;;;;5123763;27;20027;-87
2022/10/21 04:44:33;;;;;;;168.35;29.98;;;12.20;99.90;;;;;;5106073;27;20046;-87
2022/10/21 04:46:58;;;;;;;240.32;34.47;;;12.20;99.90;;;;;;5091071;27;20107;-92
2022/10/21 04:49:24;;;;;;;272.13;37.25;;;12.10;99.90;;;;;;5122781;27;20043;-94
2022/10/21 04:51:50;;;;;;;291.67;36.83;;;12.10;99.90;;;;;;5138299;27;20053;-91
2022/10/21 04:54:16;;;;;;;327.25;39.47;;;12.00;99.90;;;;;;5121290;27;20045;-91
2022/10/21 04:56:41;;;;;;;268.70;36.72;;;12.00;99.90;;;;;;5138121;27;20038;-92
2022/10/21 04:59:07;;;;;;;159.48;31.52;;;12.00;99.90;;;;;;5103971;27;20098;-92
2022/10/21 05:01:33;;;;;;;102.53;29.60;;;12.00;99.90;;;;;;5102949;27;20043;-91
2022/10/21 05:03:58;;;;;;;91.22;29.88;;;12.00;99.90;;;;;;5121465;27;20046;-92
2022/10/21 05:06:24;;;;;;;86.97;28.02;;;11.90;99.90;;;;;;5125431;27;20038;-91
2022/10/21 05:08:51;;;;;;;83.68;28.45;;;11.90;99.90;;;;;;5121542;27;20055;-91
2022/10/21 05:11:17;;;;;;;78.40;28.27;;;11.90;99.90;;;;;;5120490;27;20122;-94
2022/10/21 05:13:42;;;;;;;75.03;26.48;;;11.90;99.90;;;;;;5102901;27;20125;-91
2022/10/21 05:16:08;;;;;;;100.68;28.60;;;11.80;99.90;;;;;;5103441;27;20039;-92
2022/10/21 05:18:33;;;;;;;91.35;28.23;;;11.70;99.90;;;;;;5103353;27;20488;-92
2022/10/21 05:20:59;;;;;;;96.70;28.67;;;11.80;99.90;;;;;;5136423;27;20065;-93
2022/10/21 05:23:25;;;;;;;91.30;27.67;;;11.70;99.90;;;;;;5136621;27;20039;-93
2022/10/21 05:25:51;;;;;;;89.60;27.75;;;11.70;99.90;;;;;;5102319;27;20125;-92
2022/10/21 05:28:17;;;;;;;82.13;26.95;;;11.60;99.90;;;;;;5102783;27;20082;-92
2022/10/21 05:30:42;;;;;;;97.88;26.83;;;11.60;99.90;;;;;;5085589;27;20045;-92
2022/10/21 05:33:08;;;;;;;80.32;26.67;;;11.50;99.90;;;;;;5120125;27;20046;-92
2022/10/21 05:35:34;;;;;;;105.63;27.95;;;11.50;99.90;;;;;;5137092;27;20485;-94
2022/10/21 05:37:59;;;;;;;86.85;26.42;;;11.50;99.90;;;;;;5117529;27;20039;-92
2022/10/21 05:40:25;;;;;;;85.43;27.80;;;11.50;99.90;;;;;;5082393;28;20045;-91
2022/10/21 05:42:51;;;;;;;71.30;26.63;;;11.50;99.90;;;;;;5064793;28;20457;-91
2022/10/21 05:45:16;;;;;;;76.45;27.75;;;11.50;99.90;;;;;;5100687;28;20043;-91
2022/10/21 05:47:42;;;;;;;101.85;28.80;;;11.50;99.90;;;;;;5085872;28;20122;-94
2022/10/21 05:50:09;;;;;;;84.65;26.98;;;11.50;99.90;;;;;;5083767;28;20051;-93
2022/10/21 05:52:35;;;;;;;70.40;27.13;;;11.50;99.90;;;;;;5081663;28;20474;-93
2022/10/21 05:55:01;;;;;;;76.60;26.52;;;11.50;99.90;;;;;;5084239;27;20043;-93
2022/10/21 05:57:26;;;;;;;87.95;28.90;;;11.60;99.90;;;;;;5125126;27;20050;-90
2022/10/21 05:59:52;;;;;;;87.95;27.73;;;11.60;99.90;;;;;;5109416;27;20027;-90
2022/10/21 06:02:18;;;;;;;74.65;27.60;;;11.50;99.90;;;;;;5126418;27;20031;-91
2022/10/21 06:04:43;;;;;;;85.88;28.55;;;11.50;99.90;;;;;;5124794;27;20106;-91
2022/10/21 06:07:09;;;;;;;84.00;27.95;;;11.40;99.90;;;;;;5087884;27;20463;-93
2022/10/21 06:09:36;;;;;;;65.95;26.83;;;11.50;99.90;;;;;;5085783;27;20047;-92
2022/10/21 06:12:02;;;;;;;83.90;26.90;;;11.40;99.90;;;;;;5102985;27;20082;-93
2022/10/21 06:14:27;;;;;;;75.28;23.95;;;11.40;99.90;;;;;;5103069;27;20096;-91
2022/10/21 06:16:54;;;;;;;80.55;26.73;;;11.40;99.90;;;;;;5102188;27;20038;-93
2022/10/21 06:19:19;;;;;;;87.25;27.60;;;11.40;99.90;;;;;;5101740;27;20102;-92
2022/10/21 06:21:46;;;;;;;102.82;29.40;;;11.30;99.90;;;;;;5085114;27;20039;-94
2022/10/21 06:24:12;;;;;;;104.82;26.65;;;11.30;99.90;;;;;;5120728;27;20075;-90
2022/10/21 06:26:37;;;;;;;103.15;28.23;;;11.20;99.90;;;;;;5105582;27;20047;-90
2022/10/21 06:29:03;;;;;;;92.47;27.50;;;11.20;99.90;;;;;;5119718;27;20446;-92
2022/10/21 06:31:29;;;;;;;96.47;26.70;;;11.20;99.90;;;;;;5119444;27;20367;-92
2022/10/21 06:33:54;;;;;;;95.18;29.25;;;11.20;99.90;;;;;;5119115;27;20074;-93
2022/10/21 06:36:20;;;;;;;96.55;27.85;;;11.20;99.90;;;;;;5119262;27;20039;-92
2022/10/21 06:38:46;;;;;;;90.75;26.50;;;11.10;99.90;;;;;;5101382;27;20035;-90
2022/10/21 06:41:12;;;;;;;107.72;27.20;;;11.10;99.90;;;;;;5102481;27;20047;-95
2022/10/21 06:43:38;;;;;;;107.88;27.60;;;11.10;99.90;;;;;;5085608;27;20474;-93
2022/10/21 06:46:05;;;;;;;106.35;28.23;;;11.10;99.90;;;;;;5068681;27;20130;-90
2022/10/21 06:48:31;;;;;;;108.72;28.30;;;11.10;99.90;;;;;;5102378;27;20054;-91
2022/10/21 06:51:07;;;;;;;105.38;29.40;;;11.20;99.90;;;;;;5101505;27;20043;-93
2022/10/21 06:53:33;;;;;;;74.53;27.17;;;11.20;99.90;;;;;;5070057;27;20050;-91
2022/10/21 06:56:03;;;;;;;87.47;26.23;;;11.20;99.90;;;;;;5085438;27;20043;-91
2022/10/21 06:58:29;;;;;;;78.60;27.17;;;11.20;99.90;;;;;;5085657;27;20126;-92
2022/10/21 07:00:55;;;;;;;120.50;27.55;;;11.30;99.90;;;;;;5083461;27;20129;-87
2022/10/21 07:03:21;;;;;;;75.97;26.73;;;11.30;99.90;;;;;;5101229;27;20114;-95
2022/10/21 07:05:46;;;;;;;68.20;25.55;;;11.40;99.90;;;;;;5100881;27;20443;-93
2022/10/21 07:08:12;;;;;;;67.20;27.35;;;11.50;99.90;;;;;;5114596;28;20048;-94
2022/10/21 07:10:41;;;;;;;78.45;27.15;;;11.50;99.90;;;;;;5081087;28;20087;-93
2022/10/21 07:13:06;;;;;;;78.63;26.48;;;11.60;99.90;;;;;;5081495;28;20487;-93
2022/10/21 07:15:32;;;;;;;69.85;27.08;;;11.70;99.90;;;;;;5079054;28;20035;-88
2022/10/21 07:17:59;;;;;;;93.78;27.52;;;11.70;99.90;;;;;;5083881;27;20035;-87
2022/10/21 07:20:26;;;;;;;74.65;26.88;;;11.80;99.90;;;;;;5114811;27;20023;-87
2022/10/21 07:22:51;;;;;;;76.47;26.52;;;11.90;99.90;;;;;;5073139;27;20027;-89
2022/10/21 07:25:18;;;;;;;67.70;26.35;;;12.00;99.90;;;;;;5110900;27;20122;-88
2022/10/21 07:27:43;;;;;;;63.22;25.55;;;12.10;99.90;;;;;;5088780;28;20192;-88
2022/10/21 07:30:09;;;;;;;63.55;26.15;;;12.50;99.90;;;;;;5091814;27;20530;-88
2022/10/21 07:32:35;;;;;;;80.68;27.25;;;12.80;99.90;;;;;;5106404;27;20039;-89
2022/10/21 07:35:01;;;;;;;62.75;25.75;;;13.10;99.90;;;;;;5087862;27;20073;-85
2022/10/21 07:37:26;;;;;;;61.97;24.52;;;13.10;99.90;;;;;;5090144;27;20035;-85
2022/10/21 07:39:53;;;;;;;50.28;24.17;;;12.90;99.90;;;;;;5105076;27;20039;-86
2022/10/21 07:42:19;;;;;;;52.92;23.15;;;12.80;99.90;;;;;;5088585;27;20035;-87
2022/10/21 07:44:44;;;;;;;45.95;22.83;;;12.60;99.90;;;;;;5074284;27;20038;-88
2022/10/21 07:47:10;;;;;;;50.70;23.55;;;12.60;99.90;;;;;;5085156;27;20442;-91
2022/10/21 07:49:35;;;;;;;50.88;22.55;;;12.60;99.90;;;;;;5128099;27;20039;-90
2022/10/21 07:52:01;;;;;;;59.92;22.60;;;12.60;99.90;;;;;;5127173;27;20052;-87
2022/10/21 07:54:27;;;;;;;57.30;22.88;;;12.70;99.90;;;;;;5105895;27;20066;-88
2022/10/21 07:56:53;;;;;;;51.60;22.70;;;12.70;99.90;;;;;;5105776;27;20035;-87
2022/10/21 07:59:19;;;;;;;47.00;22.80;;;12.80;99.90;;;;;;5086945;27;20047;-88
2022/10/21 08:01:46;;;;;;;52.60;23.23;;;12.90;99.90;;;;;;5099649;27;20406;-87
2022/10/21 08:04:14;;;;;;;49.55;23.52;;;13.10;99.90;;;;;;5100088;27;20090;-89
2022/10/21 08:06:40;;;;;;;53.08;23.98;;;13.30;99.90;;;;;;5090658;27;20079;-88
2022/10/21 08:09:05;;;;;;;47.05;22.58;;;13.40;99.90;;;;;;5121172;27;20081;-86
2022/10/21 08:11:32;;;;;;;42.58;22.42;;;13.60;99.90;;;;;;5090150;27;20034;-87
2022/10/21 08:13:57;;;;;;;45.88;22.05;;;13.70;99.90;;;;;;5106859;27;20039;-87
2022/10/21 08:16:25;;;;;;;40.03;21.95;;;13.80;99.90;;;;;;5104412;27;20027;-87
2022/10/21 08:18:51;;;;;;;42.38;22.75;;;13.90;99.90;;;;;;5099412;27;20409;-90
2022/10/21 08:21:16;;;;;;;39.35;21.38;;;14.00;99.90;;;;;;5082001;27;20047;-89
2022/10/21 08:23:42;;;;;;;38.22;21.65;;;13.90;99.90;;;;;;5088882;27;20039;-88
2022/10/21 08:26:13;;;;;;;35.50;20.67;;;14.00;99.90;;;;;;5103211;28;20046;-91
2022/10/21 08:28:38;;;;;;;32.47;19.63;;;13.90;99.90;;;;;;5067059;28;20047;-92
2022/10/21 08:31:10;;;;;;;36.85;20.67;;;14.00;99.90;;;;;;5099690;28;20040;-92
2022/10/21 08:33:36;;;;;;;37.17;20.40;;;14.10;99.90;;;;;;5104734;27;20069;-87
2022/10/21 08:36:13;;;;;;;33.88;20.85;;;14.20;99.90;;;;;;5139412;27;20023;-85
2022/10/21 08:38:38;;;;;;;33.17;19.23;;;14.40;99.90;;;;;;5134890;27;20058;-89
2022/10/21 08:41:28;;;;;;;29.67;18.88;;;14.80;99.90;;;;;;5115931;27;20043;-89
2022/10/21 08:44:18;;;;;;;27.38;17.42;;;15.10;99.90;;;;;;5116347;27;20047;-91
2022/10/21 08:47:01;;;;;;;27.15;18.92;;;15.10;99.90;;;;;;5099195;27;20097;-91
2022/10/21 08:49:29;;;;;;;25.27;16.48;;;15.10;99.90;;;;;;5083032;27;20059;-89
2022/10/21 08:52:02;;;;;;;24.88;17.13;;;15.20;99.90;;;;;;5099150;27;20122;-91
2022/10/21 08:54:51;;;;;;;26.77;17.52;;;15.40;99.90;;;;;;5099187;27;20069;-91
2022/10/21 08:57:16;;;;;;;21.58;15.77;;;15.60;99.90;;;;;;5115860;27;20051;-90
2022/10/21 08:59:42;;;;;;;22.42;16.33;;;15.40;99.90;;;;;;5099224;27;20103;-91
2022/10/21 09:02:11;;;;;;;21.23;16.33;;;15.10;99.90;;;;;;5098761;27;20120;-90
2022/10/21 09:04:40;;;;;;;24.30;15.20;;;15.20;99.90;;;;;;5116038;27;20096;-90
2022/10/21 09:07:07;;;;;;;21.67;15.32;;;14.90;99.90;;;;;;5098989;27;20399;-89
2022/10/21 09:09:42;;;;;;;24.05;14.45;;;14.90;99.90;;;;;;5084160;27;20137;-91
2022/10/21 09:12:18;;;;;;;21.83;15.32;;;15.00;99.90;;;;;;5099177;27;20085;-90
2022/10/21 09:15:02;;;;;;;22.67;15.43;;;14.70;99.90;;;;;;5117774;27;20055;-92
2022/10/21 09:18:09;;;;;;;28.42;16.25;;;14.70;99.90;;;;;;5101615;27;20108;-90
2022/10/21 09:20:52;;;;;;;19.00;14.40;;;14.60;99.90;;;;;;5029370;28;20052;-90
2022/10/21 09:23:55;;;;;;;20.90;15.00;;;14.60;99.90;;;;;;5010842;28;20064;-91
2022/10/21 09:26:24;;;;;;;23.42;15.63;;;14.70;99.90;;;;;;5051387;27;20090;-90
2022/10/21 09:28:49;;;;;;;23.35;15.75;;;14.80;99.90;;;;;;5119110;28;20051;-90
2022/10/21 09:31:21;;;;;;;22.05;15.73;;;14.90;99.90;;;;;;5086293;28;20077;-91
2022/10/21 09:33:54;;;;;;;24.92;16.65;;;15.10;99.90;;;;;;5117541;28;20047;-91
2022/10/21 09:36:34;;;;;;;24.23;16.85;;;15.20;99.90;;;;;;5099535;28;20047;-92
2022/10/21 09:39:06;;;;;;;21.15;15.30;;;15.20;99.90;;;;;;5083250;28;20134;-90
2022/10/21 09:41:36;;;;;;;22.15;15.63;;;15.20;99.90;;;;;;5099203;28;20055;-91
2022/10/21 09:44:02;;;;;;;21.17;14.68;;;15.30;99.90;;;;;;5083364;28;20058;-90
2022/10/21 09:46:27;;;;;;;21.35;15.25;;;15.20;99.90;;;;;;5115155;28;20126;-91
2022/10/21 09:48:54;;;;;;;19.95;14.48;;;15.40;99.90;;;;;;5103651;27;20038;-84
2022/10/21 09:51:28;;;;;;;19.50;14.82;;;15.40;99.90;;;;;;5156213;27;20035;-87
2022/10/21 09:53:55;;;;;;;;;;;15.50;99.90;;;;;;5122783;27;20042;-87
2022/10/21 09:56:33;;;;;;;21.20;14.70;;;15.60;99.90;;;;;;5135911;28;19951;-92
2022/10/21 09:59:07;;;;;;;25.50;14.68;;;15.60;99.90;;;;;;5100133;28;20444;-91
2022/10/21 10:01:33;;;;;;;21.83;14.15;;;15.60;99.90;;;;;;5114716;28;20047;-93
2022/10/21 10:03:59;;;;;;;20.17;13.40;;;15.70;99.90;;;;;;5098404;28;20251;-91
2022/10/21 10:06:34;;;;;;;18.60;14.27;;;15.50;99.90;;;;;;5081882;28;20047;-92
2022/10/21 10:09:24;;;;;;;17.35;13.93;;;15.70;99.90;;;;;;5098119;28;20546;-91
2022/10/21 10:11:54;;;;;;;21.08;12.75;;;15.50;99.90;;;;;;5088618;28;20106;-92
2022/10/21 10:14:28;;;;;;;18.73;13.27;;;15.60;99.90;;;;;;5099009;28;20051;-92
2022/10/21 10:16:54;;;;;;;19.55;12.52;;;15.60;99.90;;;;;;5115299;28;20505;-91
2022/10/21 10:19:27;;;;;;;18.98;13.65;;;15.60;99.90;;;;;;5081812;28;20054;-93
2022/10/21 10:22:12;;;;;;;18.80;13.43;;;15.70;99.90;;;;;;5080834;28;20039;-92
2022/10/21 10:24:39;;;;;;;18.33;13.30;;;15.60;99.90;;;;;;5081176;28;20047;-93
2022/10/21 10:27:22;;;;;;;18.67;13.00;;;15.50;99.90;;;;;;5082076;28;20083;-90
2022/10/21 10:29:55;;;;;;;17.30;12.48;;;15.50;99.90;;;;;;5084173;28;20085;-91
2022/10/21 10:32:22;;;;;;;17.50;12.15;;;15.60;99.90;;;;;;5081151;28;20043;-91
2022/10/21 10:34:53;;;;;;;21.63;13.30;;;15.60;99.90;;;;;;5081216;28;20054;-93
2022/10/21 10:37:23;;;;;;;18.92;13.05;;;15.60;99.90;;;;;;5081542;28;20039;-93
2022/10/21 10:39:51;;;;;;;17.45;12.82;;;15.60;99.90;;;;;;5081763;27;20051;-92
2022/10/21 10:42:30;;;;;;;20.35;12.18;;;15.70;99.90;;;;;;5083735;27;20082;-86
2022/10/21 10:44:58;;;;;;;17.20;12.20;;;15.80;99.90;;;;;;5101905;27;20089;-91
2022/10/21 10:47:28;;;;;;;16.85;11.95;;;15.70;99.90;;;;;;5067774;27;20051;-90
2022/10/21 10:49:54;;;;;;;17.60;12.15;;;15.70;99.90;;;;;;5084834;27;20082;-92
2022/10/21 10:52:22;;;;;;;15.38;10.60;;;15.80;99.90;;;;;;5117928;27;20110;-91
2022/10/21 10:55:07;;;;;;;14.02;10.95;;;15.70;99.90;;;;;;5101873;27;20522;-93
2022/10/21 10:57:32;;;;;;;;;;;15.80;99.90;;;;;;5101468;27;20089;-94
2022/10/21 11:00:09;;;;;;;16.67;11.07;;;15.70;99.90;;;;;;5101478;27;19927;-93
2022/10/21 11:02:39;;;;;;;15.20;10.65;;;15.80;99.90;;;;;;5101639;27;20126;-91
2022/10/21 11:05:19;;;;;;;19.90;11.55;;;15.70;99.90;;;;;;5084997;27;20051;-90
2022/10/21 11:07:50;;;;;;;17.73;10.45;;;15.80;99.90;;;;;;5112164;27;20050;-88
2022/10/21 11:10:32;;;;;;;13.32;10.15;;;15.80;99.90;;;;;;5125411;27;20031;-87
2022/10/21 11:12:59;;;;;;;16.05;10.68;;;15.90;99.90;;;;;;5124867;27;20027;-89
2022/10/21 11:15:43;;;;;;;14.63;10.40;;;15.90;99.90;;;;;;5097380;27;20050;-93
2022/10/21 11:18:34;;;;;;;12.60;9.65;;;15.80;99.90;;;;;;5119444;27;20050;-91
2022/10/21 11:21:14;;;;;;;15.95;10.20;;;15.80;99.90;;;;;;5029197;27;20111;-93
2022/10/21 11:23:47;;;;;;;14.63;10.07;;;15.80;99.90;;;;;;5100606;27;20042;-90
2022/10/21 11:26:37;;;;;;;15.10;9.18;;;15.80;99.90;;;;;;5100668;27;20063;-90
2022/10/21 11:29:38;;;;;;;15.15;9.63;;;15.90;99.90;;;;;;5087203;27;20084;-90
2022/10/21 11:32:10;;;;;;;14.80;9.65;;;15.80;99.90;;;;;;5095791;27;20055;-91
2022/10/21 11:35:07;;;;;;;15.88;9.73;;;15.90;99.90;;;;;;5083266;27;20047;-92
2022/10/21 11:37:55;;;;;;;12.85;9.20;;;16.00;99.90;;;;;;5117184;27;20070;-90
2022/10/21 11:40:43;;;;;;;16.90;9.60;;;16.00;99.90;;;;;;5117205;27;20043;-92
2022/10/21 11:43:21;;;;;;;14.52;8.60;;;15.90;99.90;;;;;;5100417;27;20054;-91
2022/10/21 11:46:00;;;;;;;16.73;9.43;;;16.00;99.90;;;;;;5084504;27;20081;-92
2022/10/21 11:49:00;;;;;;;12.95;9.27;;;16.00;99.90;;;;;;5117140;27;20096;-92
2022/10/21 11:51:38;;;;;;;13.90;8.98;;;15.90;99.90;;;;;;5100325;27;20054;-91
2022/10/21 11:54:08;;;;;;;18.10;10.25;;;16.00;99.90;;;;;;5100332;27;20047;-92
2022/10/21 11:57:31;;;;;;;13.20;9.05;;;16.10;99.90;;;;;;5100069;27;20051;-94
2022/10/21 12:00:11;;;;;;;13.35;9.55;;;17.20;99.90;;;;;;5015595;28;20056;-91
2022/10/21 12:02:44;;;;;;;14.73;9.68;;;16.00;99.90;;;;;;4982468;28;20413;-90
2022/10/21 12:05:27;;;;;;;13.30;9.20;;;15.90;99.90;;;;;;5065710;28;20048;-91
2022/10/21 12:07:58;;;;;;;13.45;8.50;;;16.10;99.90;;;;;;5099817;27;20051;-91
2022/10/21 12:10:29;;;;;;;11.80;8.65;;;16.10;99.90;;;;;;5117214;27;20094;-91
2022/10/21 12:12:56;;;;;;;13.82;8.80;;;16.10;99.90;;;;;;5083900;27;20377;-92
2022/10/21 12:15:26;;;;;;;12.43;9.15;;;16.00;99.90;;;;;;5084727;27;20443;-92
2022/10/21 12:17:52;;;;;;;12.10;8.82;;;16.20;99.90;;;;;;5083174;27;20150;-92
2022/10/21 12:20:20;;;;;;;13.93;8.73;;;16.10;99.90;;;;;;5083280;27;20143;-91
2022/10/21 12:22:46;;;;;;;15.95;9.30;;;16.10;99.90;;;;;;5082795;27;20075;-91
2022/10/21 12:25:11;;;;;;;13.00;8.80;;;16.20;99.90;;;;;;5083082;27;20090;-92
2022/10/21 12:27:52;;;;;;;13.38;9.27;;;16.30;99.90;;;;;;5099446;28;20024;-87
2022/10/21 12:30:27;;;;;;;14.27;8.95;;;16.10;99.90;;;;;;5081259;28;20035;-90
2022/10/21 12:33:28;;;;;;;16.00;9.25;;;16.10;99.90;;;;;;5092398;28;20035;-89
2022/10/21 12:36:10;;;;;;;12.38;8.57;;;16.00;99.90;;;;;;5055895;28;20044;-92
2022/10/21 12:38:57;;;;;;;11.77;8.73;;;16.20;99.90;;;;;;5091892;27;20047;-90
2022/10/21 12:41:25;;;;;;;15.68;9.40;;;16.30;99.90;;;;;;5097421;27;20176;-89
2022/10/21 12:44:00;;;;;;;13.07;8.88;;;16.20;99.90;;;;;;5114922;27;20656;-90
2022/10/21 12:46:32;;;;;;;11.85;9.20;;;16.20;99.90;;;;;;5093504;27;20188;-91